Time;durP1;ratioP1;P1;durP2;ratioP2;P2;SDS_P1;SDS_P2;PMS_P1;PMS_P2;Temp;Humidity;BMP_temperature;BMP_pressure;BME280_temperature;BME280_humidity;BME280_pressure;Samples;Min_cycle;Max_cycle;Signal;HPM_P1;HPM_P2
2023/04/16 00:01:40;;;;;;;;;;;18.30;48.50;;;;;;10326600;28;885;-77
2023/04/16 00:06:36;;;;;;;;;;;18.30;48.40;;;;;;10326329;28;916;-77
2023/04/16 00:11:31;;;;;;;;;;;18.30;48.50;;;;;;10327039;28;1918;-77
2023/04/16 00:16:26;;;;;;;;;;;18.30;48.50;;;;;;10326753;28;857;-77
2023/04/16 00:21:22;;;;;;;;;;;18.30;48.50;;;;;;10326091;28;767;-77
2023/04/16 00:26:17;;;;;;;;;;;18.30;48.40;;;;;;10326317;28;1011;-77
2023/04/16 00:31:12;;;;;;;;;;;18.30;49.00;;;;;;10325743;28;1910;-78
2023/04/16 00:36:08;;;;;;;;;;;18.20;48.40;;;;;;10325644;28;957;-77
2023/04/16 00:41:03;;;;;;;;;;;18.20;48.40;;;;;;10325637;28;901;-77
2023/04/16 00:45:59;;;;;;;;;;;18.20;48.40;;;;;;10325485;28;912;-77
2023/04/16 00:50:54;;;;;;;;;;;18.20;48.40;;;;;;10325227;28;1969;-78
2023/04/16 00:55:50;;;;;;;;;;;18.30;48.30;;;;;;10326286;28;1203;-78
2023/04/16 01:00:45;;;;;;;;;;;18.20;48.30;;;;;;10325801;28;896;-77
2023/04/16 01:05:40;;;;;;;;;;;18.20;48.30;;;;;;10325405;28;809;-77
2023/04/16 01:10:36;;;;;;;;;;;18.20;48.40;;;;;;10324342;28;1926;-77
2023/04/16 01:15:31;;;;;;;;;;;18.20;48.40;;;;;;10324930;28;794;-77
2023/04/16 01:20:26;;;;;;;;;;;18.20;48.20;;;;;;10326044;28;853;-77
2023/04/16 01:25:22;;;;;;;;;;;18.20;48.30;;;;;;10324693;28;881;-77
2023/04/16 01:30:17;;;;;;;;;;;18.30;48.30;;;;;;10324585;28;2034;-77
2023/04/16 01:35:12;;;;;;;;;;;18.20;48.20;;;;;;10325173;28;778;-78
2023/04/16 01:40:08;;;;;;;;;;;18.20;48.30;;;;;;10325012;28;869;-79
2023/04/16 01:45:03;;;;;;;;;;;18.20;48.30;;;;;;10324344;28;860;-77
2023/04/16 01:49:58;;;;;;;;;;;18.20;48.30;;;;;;10324555;28;1957;-79
2023/04/16 01:54:54;;;;;;;;;;;18.20;48.20;;;;;;10324854;28;1138;-78
2023/04/16 01:59:49;;;;;;;;;;;18.20;48.20;;;;;;10325192;28;842;-77
2023/04/16 02:04:45;;;;;;;;;;;18.20;48.20;;;;;;10331260;28;877;-77
2023/04/16 02:09:40;;;;;;;;;;;18.20;48.20;;;;;;10330853;28;1914;-77
2023/04/16 02:14:36;;;;;;;;;;;18.20;48.30;;;;;;10330955;28;894;-77
2023/04/16 02:19:31;;;;;;;;;;;18.20;48.20;;;;;;10331299;28;851;-77
2023/04/16 02:24:26;;;;;;;;;;;18.10;48.30;;;;;;10330486;28;881;-78
2023/04/16 02:29:22;;;;;;;;;;;18.10;48.30;;;;;;10331077;28;1965;-77
2023/04/16 02:34:17;;;;;;;;;;;18.10;48.20;;;;;;10330218;28;932;-77
2023/04/16 02:39:12;;;;;;;;;;;18.10;48.20;;;;;;10329822;28;871;-78
2023/04/16 02:44:08;;;;;;;;;;;18.10;48.30;;;;;;10329814;28;972;-77
2023/04/16 02:49:03;;;;;;;;;;;18.10;48.20;;;;;;10330140;28;1898;-78
2023/04/16 02:53:58;;;;;;;;;;;18.10;48.20;;;;;;10330013;28;845;-77
2023/04/16 02:58:54;;;;;;;;;;;18.10;48.30;;;;;;10329157;28;1689;-77
2023/04/16 03:03:49;;;;;;;;;;;18.10;48.20;;;;;;10329063;28;842;-77
2023/04/16 03:08:45;;;;;;;;;;;18.10;48.20;;;;;;10328689;28;1980;-77
2023/04/16 03:13:40;;;;;;;;;;;18.20;48.20;;;;;;10326893;28;1326;-78
2023/04/16 03:18:35;;;;;;;;;;;18.10;48.10;;;;;;10329156;28;786;-77
2023/04/16 03:23:31;;;;;;;;;;;18.10;48.20;;;;;;10328345;28;943;-77
2023/04/16 03:28:26;;;;;;;;;;;18.10;48.00;;;;;;10327874;28;1906;-77
2023/04/16 03:33:21;;;;;;;;;;;18.10;48.20;;;;;;10327788;28;769;-78
2023/04/16 03:38:17;;;;;;;;;;;18.10;48.20;;;;;;10327463;28;786;-77
2023/04/16 03:43:12;;;;;;;;;;;18.10;48.20;;;;;;10326887;28;914;-78
2023/04/16 03:48:07;;;;;;;;;;;18.10;48.20;;;;;;10327189;28;889;-78
2023/04/16 03:53:03;;;;;;;;;;;18.10;48.30;;;;;;10327738;28;1959;-77
2023/04/16 03:58:01;;;;;;;;;;;18.10;48.20;;;;;;10327164;28;1200;-77
2023/04/16 04:02:57;;;;;;;;;;;18.10;48.20;;;;;;10326584;28;1002;-77
2023/04/16 04:07:52;;;;;;;;;;;18.10;48.20;;;;;;10326931;28;874;-78
2023/04/16 04:12:48;;;;;;;;;;;18.10;48.20;;;;;;10326482;28;1918;-77
2023/04/16 04:17:43;;;;;;;;;;;18.10;48.20;;;;;;10326228;28;853;-77
2023/04/16 04:22:38;;;;;;;;;;;18.10;48.20;;;;;;10325761;28;794;-77
2023/04/16 04:27:34;;;;;;;;;;;18.10;48.00;;;;;;10325975;28;979;-78
2023/04/16 04:32:30;;;;;;;;;;;18.10;48.20;;;;;;10326392;28;1905;-77
2023/04/16 04:37:25;;;;;;;;;;;18.10;48.20;;;;;;10325556;28;953;-78
2023/04/16 04:42:20;;;;;;;;;;;18.20;48.10;;;;;;10325610;28;877;-78
2023/04/16 04:47:16;;;;;;;;;;;18.20;48.10;;;;;;10326123;28;756;-78
2023/04/16 04:52:11;;;;;;;;;;;18.20;48.10;;;;;;10325340;28;1910;-77
2023/04/16 04:57:06;;;;;;;;;;;18.20;48.00;;;;;;10325584;28;1466;-78
2023/04/16 05:02:02;;;;;;;;;;;18.20;48.10;;;;;;10325237;28;882;-78
2023/04/16 05:06:57;;;;;;;;;;;18.20;48.10;;;;;;10325063;28;870;-78
2023/04/16 05:11:53;;;;;;;;;;;18.20;48.10;;;;;;10324878;28;1913;-78
2023/04/16 05:16:48;;;;;;;;;;;18.20;47.90;;;;;;10325524;28;900;-78
2023/04/16 05:21:43;;;;;;;;;;;18.20;47.90;;;;;;10324833;28;758;-77
2023/04/16 05:26:39;;;;;;;;;;;18.20;48.00;;;;;;10324733;28;1029;-78
2023/04/16 05:31:34;;;;;;;;;;;18.20;48.00;;;;;;10324544;28;1909;-77
2023/04/16 05:36:30;;;;;;;;;;;18.20;47.90;;;;;;10328255;28;984;-77
2023/04/16 05:41:25;;;;;;;;;;;18.20;47.90;;;;;;10332112;28;821;-78
2023/04/16 05:46:20;;;;;;;;;;;18.20;47.90;;;;;;10331971;28;861;-79
2023/04/16 05:51:16;;;;;;;;;;;18.20;48.00;;;;;;10331741;28;1909;-78
2023/04/16 05:56:11;;;;;;;;;;;18.20;48.00;;;;;;10330831;28;1490;-77
2023/04/16 06:01:06;;;;;;;;;;;18.20;47.90;;;;;;10331492;28;861;-78
2023/04/16 06:06:02;;;;;;;;;;;18.20;47.90;;;;;;10331887;28;860;-78
2023/04/16 06:10:57;;;;;;;;;;;18.20;47.90;;;;;;10331314;28;1993;-78
2023/04/16 06:15:54;;;;;;;;;;;18.20;48.00;;;;;;10331389;28;1010;-77
2023/04/16 06:20:49;;;;;;;;;;;18.20;47.90;;;;;;10330747;28;871;-78
2023/04/16 06:25:44;;;;;;;;;;;18.20;47.90;;;;;;10330908;28;958;-77
2023/04/16 06:30:40;;;;;;;;;;;18.20;47.90;;;;;;10330308;28;1886;-77
2023/04/16 06:35:35;;;;;;;;;;;18.30;47.90;;;;;;10330706;28;876;-77
2023/04/16 06:40:31;;;;;;;;;;;18.20;47.80;;;;;;10330014;28;865;-75
2023/04/16 06:45:26;;;;;;;;;;;18.30;47.90;;;;;;10330573;28;833;-77
2023/04/16 06:50:22;;;;;;;;;;;18.20;47.90;;;;;;10329494;28;1898;-77
2023/04/16 06:55:17;;;;;;;;;;;18.20;47.80;;;;;;10329468;28;1144;-78
2023/04/16 07:00:12;;;;;;;;;;;18.20;47.90;;;;;;10329793;28;889;-73
2023/04/16 07:05:08;;;;;;;;;;;18.20;47.90;;;;;;10329287;28;787;-73
2023/04/16 07:10:04;;;;;;;;;;;18.30;48.10;;;;;;10328745;28;1898;-73
2023/04/16 07:15:00;;;;;;;;;;;18.30;48.50;;;;;;10328550;28;966;-73
2023/04/16 07:19:55;;;;;;;;;;;18.40;49.20;;;;;;10327815;28;904;-73
2023/04/16 07:24:50;;;;;;;;;;;18.40;49.10;;;;;;10328195;28;767;-72
2023/04/16 07:29:46;;;;;;;;;;;18.40;49.70;;;;;;10327925;28;1958;-73
2023/04/16 07:34:41;;;;;;;;;;;18.50;49.70;;;;;;10327803;28;769;-72
2023/04/16 07:39:36;;;;;;;;;;;18.50;50.10;;;;;;10328315;28;852;-70
2023/04/16 07:44:32;;;;;;;;;;;18.50;50.10;;;;;;10327373;28;1047;-70
2023/04/16 07:49:27;;;;;;;;;;;18.40;50.10;;;;;;10326574;28;1952;-70
2023/04/16 07:54:23;;;;;;;;;;;18.30;50.10;;;;;;10328009;28;947;-70
2023/04/16 07:59:18;;;;;;;;;;;18.30;50.00;;;;;;10326113;28;1283;-70
2023/04/16 08:04:15;;;;;;;;;;;18.40;49.80;;;;;;10326167;28;849;-70
2023/04/16 08:09:11;;;;;;;;;;;18.40;49.70;;;;;;10326987;28;1906;-69
2023/04/16 08:14:06;;;;;;;;;;;18.30;49.70;;;;;;10326317;28;857;-70
2023/04/16 08:19:02;;;;;;;;;;;18.30;49.70;;;;;;10326323;28;958;-70
2023/04/16 08:23:57;;;;;;;;;;;18.40;49.80;;;;;;10326203;28;1088;-69
2023/04/16 08:28:53;;;;;;;;;;;18.40;49.70;;;;;;10326401;28;1948;-73
2023/04/16 08:33:48;;;;;;;;;;;18.30;49.80;;;;;;10325776;28;853;-68
2023/04/16 08:38:44;;;;;;;;;;;18.20;49.80;;;;;;10326520;28;839;-81
2023/04/16 08:43:39;;;;;;;;;;;18.30;50.00;;;;;;10325821;28;933;-77
2023/04/16 08:48:34;;;;;;;;;;;18.20;49.90;;;;;;10323535;28;1959;-76
2023/04/16 08:53:30;;;;;;;;;;;18.20;49.80;;;;;;10324721;28;809;-77
2023/04/16 08:58:25;;;;;;;;;;;18.20;49.80;;;;;;10325157;28;1116;-77
2023/04/16 09:03:21;;;;;;;;;;;18.20;49.90;;;;;;10324461;28;826;-77
2023/04/16 09:08:16;;;;;;;;;;;18.20;49.70;;;;;;10325768;28;894;-77
2023/04/16 09:13:12;;;;;;;;;;;18.20;49.60;;;;;;10332950;28;1971;-72
2023/04/16 09:18:07;;;;;;;;;;;18.20;49.60;;;;;;10332906;28;870;-76
2023/04/16 09:23:03;;;;;;;;;;;18.30;49.60;;;;;;10333326;28;814;-75
2023/04/16 09:27:58;;;;;;;;;;;18.30;49.40;;;;;;10332376;28;1038;-75
2023/04/16 09:32:53;;;;;;;;;;;18.30;49.50;;;;;;10331602;28;1963;-76
2023/04/16 09:37:49;;;;;;;;;;;18.20;49.40;;;;;;10331654;28;845;-76
2023/04/16 09:42:44;;;;;;;;;;;18.30;49.30;;;;;;10332939;28;996;-76
2023/04/16 09:47:40;;;;;;;;;;;18.30;49.30;;;;;;10363732;28;1070;-76
2023/04/16 09:52:35;;;;;;;;;;;18.30;49.10;;;;;;10372802;28;1906;-76
2023/04/16 09:57:31;;;;;;;;;;;18.30;49.10;;;;;;10373151;28;1388;-69
2023/04/16 10:02:26;;;;;;;;;;;18.30;49.20;;;;;;10372871;28;765;-70
2023/04/16 10:07:21;;;;;;;;;;;18.20;49.20;;;;;;10371777;28;810;-69
2023/04/16 10:12:17;;;;;;;;;;;18.30;49.50;;;;;;10372059;28;1985;-68
2023/04/16 10:17:12;;;;;;;;;;;18.30;49.60;;;;;;10372368;28;927;-69
2023/04/16 10:22:08;;;;;;;;;;;18.40;49.80;;;;;;10372002;28;840;-69
2023/04/16 10:27:03;;;;;;;;;;;18.40;50.00;;;;;;10371254;28;758;-69
2023/04/16 10:31:58;;;;;;;;;;;18.40;50.00;;;;;;10372081;28;1963;-70
2023/04/16 10:36:54;;;;;;;;;;;18.40;50.00;;;;;;10353749;28;859;-68
2023/04/16 10:41:49;;;;;;;;;;;18.40;49.90;;;;;;10353648;28;1689;-69
2023/04/16 10:46:45;;;;;;;;;;;18.50;50.30;;;;;;10370584;28;959;-69
2023/04/16 10:51:40;;;;;;;;;;;18.50;50.30;;;;;;10370670;28;1901;-68
2023/04/16 10:56:35;;;;;;;;;;;18.60;50.60;;;;;;10369593;28;1021;-69
2023/04/16 11:01:31;;;;;;;;;;;18.60;50.70;;;;;;10369637;28;1267;-68
2023/04/16 11:06:26;;;;;;;;;;;18.50;50.80;;;;;;10369774;28;1684;-69
2023/04/16 11:11:22;;;;;;;;;;;18.50;51.00;;;;;;10369991;28;1972;-68
2023/04/16 11:16:17;;;;;;;;;;;18.60;50.90;;;;;;10369190;28;1180;-68
2023/04/16 11:21:13;;;;;;;;;;;18.60;51.00;;;;;;10370107;28;750;-68
2023/04/16 11:26:08;;;;;;;;;;;18.60;51.00;;;;;;10369199;28;842;-69
2023/04/16 11:31:03;;;;;;;;;;;18.50;51.00;;;;;;10369372;28;1906;-68
2023/04/16 11:35:59;;;;;;;;;;;18.50;51.20;;;;;;10367350;28;1182;-76
2023/04/16 11:40:55;;;;;;;;;;;18.50;51.30;;;;;;10369455;28;886;-76
2023/04/16 11:45:50;;;;;;;;;;;18.40;51.10;;;;;;10368085;28;1058;-75
2023/04/16 11:50:45;;;;;;;;;;;18.40;50.90;;;;;;10369669;28;1901;-75
2023/04/16 11:55:41;;;;;;;;;;;18.40;50.70;;;;;;10368749;28;1166;-79
2023/04/16 12:00:36;;;;;;;;;;;18.40;50.70;;;;;;10368128;28;980;-70
2023/04/16 12:05:32;;;;;;;;;;;18.40;50.60;;;;;;10368181;28;916;-70
2023/04/16 12:10:28;;;;;;;;;;;18.50;50.60;;;;;;10368278;28;1959;-70
2023/04/16 12:15:23;;;;;;;;;;;18.50;50.70;;;;;;10367671;28;889;-70
2023/04/16 12:20:18;;;;;;;;;;;18.50;50.70;;;;;;10367340;28;778;-70
2023/04/16 12:25:14;;;;;;;;;;;18.50;50.70;;;;;;10367178;28;948;-70
2023/04/16 12:30:09;;;;;;;;;;;18.50;50.80;;;;;;10367579;28;1902;-70
2023/04/16 12:35:05;;;;;;;;;;;18.50;50.80;;;;;;10366801;28;770;-68
2023/04/16 12:40:00;;;;;;;;;;;18.40;50.90;;;;;;10367382;28;825;-68
2023/04/16 12:44:56;;;;;;;;;;;18.50;50.90;;;;;;10365798;28;1276;-68
2023/04/16 12:49:51;;;;;;;;;;;18.50;51.00;;;;;;10366558;28;1957;-68
2023/04/16 12:54:46;;;;;;;;;;;18.40;51.00;;;;;;10367371;28;1750;-68
2023/04/16 12:59:42;;;;;;;;;;;18.40;51.00;;;;;;10366522;28;872;-67
2023/04/16 13:04:37;;;;;;;;;;;18.50;51.20;;;;;;10366454;28;761;-68
2023/04/16 13:09:32;;;;;;;;;;;18.60;51.30;;;;;;10365980;28;1910;-68
2023/04/16 13:14:28;;;;;;;;;;;18.50;51.30;;;;;;10366151;28;865;-68
2023/04/16 13:19:23;;;;;;;;;;;18.50;51.20;;;;;;10366056;28;852;-69
2023/04/16 13:24:18;;;;;;;;;;;18.50;51.30;;;;;;10366013;28;778;-75
2023/04/16 13:29:14;;;;;;;;;;;18.50;51.30;;;;;;10365841;28;1901;-75
2023/04/16 13:34:09;;;;;;;;;;;18.40;51.20;;;;;;10366292;28;773;-72
2023/04/16 13:39:09;;;;;;;;;;;18.40;51.10;;;;;;10364980;28;1199;-75
2023/04/16 13:44:05;;;;;;;;;;;18.40;51.00;;;;;;10366272;28;852;-76
2023/04/16 13:49:00;;;;;;;;;;;18.40;50.90;;;;;;10365377;28;1942;-76
2023/04/16 13:53:55;;;;;;;;;;;18.40;50.80;;;;;;10365109;28;1078;-76
2023/04/16 13:58:51;;;;;;;;;;;18.40;50.80;;;;;;10371684;28;1148;-76
2023/04/16 14:03:46;;;;;;;;;;;18.40;50.70;;;;;;10373392;28;885;-76
2023/04/16 14:08:42;;;;;;;;;;;18.40;50.70;;;;;;10372223;28;1906;-75
2023/04/16 14:13:37;;;;;;;;;;;18.40;50.70;;;;;;10372985;28;805;-75
2023/04/16 14:18:32;;;;;;;;;;;18.40;50.60;;;;;;10372214;28;771;-76
2023/04/16 14:23:28;;;;;;;;;;;18.40;50.60;;;;;;10372581;28;909;-76
2023/04/16 14:28:23;;;;;;;;;;;18.50;50.50;;;;;;10371824;28;871;-77
2023/04/16 14:33:18;;;;;;;;;;;18.40;50.40;;;;;;10371528;28;1906;-76
2023/04/16 14:38:14;;;;;;;;;;;18.40;50.50;;;;;;10371748;28;861;-73
2023/04/16 14:43:09;;;;;;;;;;;18.40;50.50;;;;;;10371878;28;820;-76
2023/04/16 14:48:05;;;;;;;;;;;18.40;50.50;;;;;;10370294;28;910;-76
2023/04/16 14:53:00;;;;;;;;;;;18.40;50.50;;;;;;10371391;28;1910;-75
2023/04/16 14:57:55;;;;;;;;;;;18.40;50.50;;;;;;10371589;28;1445;-77
2023/04/16 15:02:51;;;;;;;;;;;18.40;50.60;;;;;;10370404;28;918;-75
2023/04/16 15:07:46;;;;;;;;;;;18.30;50.70;;;;;;10370154;28;806;-76
2023/04/16 15:12:42;;;;;;;;;;;18.30;50.60;;;;;;10369338;28;1910;-81
2023/04/16 15:17:37;;;;;;;;;;;18.30;50.50;;;;;;10369895;28;801;-79
2023/04/16 15:22:33;;;;;;;;;;;18.30;50.50;;;;;;10369659;28;890;-79
2023/04/16 15:27:28;;;;;;;;;;;18.30;50.30;;;;;;10368803;28;895;-80
2023/04/16 15:32:23;;;;;;;;;;;18.30;50.20;;;;;;10369795;28;1973;-79
2023/04/16 15:37:19;;;;;;;;;;;18.30;50.20;;;;;;10369077;28;797;-79
2023/04/16 15:42:15;;;;;;;;;;;18.30;50.20;;;;;;10368900;28;769;-79
2023/04/16 15:47:10;;;;;;;;;;;18.30;50.10;;;;;;10368746;28;826;-79
2023/04/16 15:52:05;;;;;;;;;;;18.30;50.20;;;;;;10347850;28;1909;-78
2023/04/16 15:57:01;;;;;;;;;;;18.30;50.10;;;;;;10327720;28;1267;-77
2023/04/16 16:01:56;;;;;;;;;;;18.30;50.10;;;;;;10327635;28;802;-75
2023/04/16 16:06:51;;;;;;;;;;;18.30;50.30;;;;;;10326769;28;932;-74
2023/04/16 16:11:47;;;;;;;;;;;18.30;50.20;;;;;;10326495;28;1913;-71
2023/04/16 16:16:42;;;;;;;;;;;18.30;50.10;;;;;;10326915;28;885;-71
2023/04/16 16:21:38;;;;;;;;;;;18.30;50.10;;;;;;10325193;28;1072;-72
2023/04/16 16:26:33;;;;;;;;;;;18.30;50.10;;;;;;10326810;28;923;-69
2023/04/16 16:31:28;;;;;;;;;;;18.30;50.10;;;;;;10325185;28;1905;-70
2023/04/16 16:36:24;;;;;;;;;;;18.30;50.20;;;;;;10356935;28;1172;-69
2023/04/16 16:41:20;;;;;;;;;;;18.40;50.40;;;;;;10366815;28;842;-68
2023/04/16 16:46:15;;;;;;;;;;;18.40;50.50;;;;;;10367420;28;843;-68
2023/04/16 16:51:11;;;;;;;;;;;18.30;50.60;;;;;;10366545;28;1910;-69
2023/04/16 16:56:06;;;;;;;;;;;18.30;50.60;;;;;;10366980;28;1299;-68
2023/04/16 17:01:01;;;;;;;;;;;18.30;50.60;;;;;;10366378;28;909;-72
2023/04/16 17:05:57;;;;;;;;;;;18.40;50.60;;;;;;10365791;28;793;-72
2023/04/16 17:10:52;;;;;;;;;;;18.30;50.70;;;;;;10365628;28;1967;-69
2023/04/16 17:15:48;;;;;;;;;;;18.20;50.70;;;;;;10366772;28;891;-69
2023/04/16 17:20:43;;;;;;;;;;;18.30;50.70;;;;;;10366053;28;939;-69
2023/04/16 17:25:38;;;;;;;;;;;18.30;50.70;;;;;;10366002;28;823;-69
2023/04/16 17:30:34;;;;;;;;;;;18.30;50.70;;;;;;10366014;28;1926;-69
2023/04/16 17:35:29;;;;;;;;;;;18.30;50.70;;;;;;10374696;28;924;-69
2023/04/16 17:40:24;;;;;;;;;;;18.30;50.70;;;;;;10373748;28;872;-69
2023/04/16 17:45:20;;;;;;;;;;;18.30;50.70;;;;;;10372969;28;1011;-69
2023/04/16 17:50:15;;;;;;;;;;;18.40;50.80;;;;;;10373241;28;1898;-69
2023/04/16 17:55:11;;;;;;;;;;;18.40;50.70;;;;;;10372886;28;1427;-69
2023/04/16 18:00:10;;;;;;;;;;;18.40;50.70;;;;;;10373816;28;823;-69
2023/04/16 18:05:06;;;;;;;;;;;18.30;50.70;;;;;;10372780;28;1117;-69
2023/04/16 18:10:01;;;;;;;;;;;18.40;50.80;;;;;;10372461;28;1905;-69
2023/04/16 18:14:56;;;;;;;;;;;18.30;50.70;;;;;;10372393;28;785;-69
2023/04/16 18:19:52;;;;;;;;;;;18.30;50.70;;;;;;10372214;28;798;-69
2023/04/16 18:24:47;;;;;;;;;;;18.40;50.80;;;;;;10372476;28;967;-69
2023/04/16 18:29:43;;;;;;;;;;;18.30;50.80;;;;;;10372076;28;1961;-69
2023/04/16 18:34:38;;;;;;;;;;;18.40;50.70;;;;;;10371518;28;861;-69
2023/04/16 18:39:33;;;;;;;;;;;18.40;50.90;;;;;;10371435;28;777;-68
2023/04/16 18:44:29;;;;;;;;;;;18.30;50.70;;;;;;10371291;28;841;-69
2023/04/16 18:49:24;;;;;;;;;;;18.30;50.80;;;;;;10370986;28;1975;-69
2023/04/16 18:54:20;;;;;;;;;;;18.40;50.80;;;;;;10371071;28;841;-69
2023/04/16 18:59:15;;;;;;;;;;;18.30;50.80;;;;;;10370256;28;1564;-69
2023/04/16 19:04:10;;;;;;;;;;;18.40;50.90;;;;;;10370698;28;796;-69
2023/04/16 19:09:06;;;;;;;;;;;18.40;50.80;;;;;;10370223;28;1973;-69
2023/04/16 19:14:04;;;;;;;;;;;18.40;50.90;;;;;;10370189;28;780;-69
2023/04/16 19:18:59;;;;;;;;;;;18.40;50.80;;;;;;10369979;28;826;-69
2023/04/16 19:23:54;;;;;;;;;;;18.40;50.90;;;;;;10369686;28;782;-69
2023/04/16 19:28:50;;;;;;;;;;;18.40;51.10;;;;;;10369675;28;1965;-69
2023/04/16 19:33:45;;;;;;;;;;;18.40;51.30;;;;;;10369170;28;800;-69
2023/04/16 19:38:40;;;;;;;;;;;18.50;51.40;;;;;;10369112;28;786;-69
2023/04/16 19:43:36;;;;;;;;;;;18.50;51.40;;;;;;10369511;28;889;-69
2023/04/16 19:48:31;;;;;;;;;;;18.40;51.50;;;;;;10369271;28;852;-69
2023/04/16 19:53:27;;;;;;;;;;;18.50;52.00;;;;;;10368331;28;1957;-69
2023/04/16 19:58:23;;;;;;;;;;;18.50;51.40;;;;;;10368033;28;1160;-69
2023/04/16 20:03:18;;;;;;;;;;;18.50;51.40;;;;;;10368172;28;1027;-69
2023/04/16 20:08:13;;;;;;;;;;;18.50;51.30;;;;;;10368010;28;881;-69
2023/04/16 20:13:10;;;;;;;;;;;18.40;51.40;;;;;;10367853;28;1922;-69
2023/04/16 20:18:07;;;;;;;;;;;18.50;51.40;;;;;;10367630;28;858;-69
2023/04/16 20:23:02;;;;;;;;;;;18.50;51.40;;;;;;10367417;28;961;-76
2023/04/16 20:27:58;;;;;;;;;;;18.50;51.30;;;;;;10367282;28;915;-72
2023/04/16 20:32:53;;;;;;;;;;;18.40;51.30;;;;;;10367006;28;1898;-72
2023/04/16 20:37:49;;;;;;;;;;;18.30;51.20;;;;;;10367641;28;784;-72
2023/04/16 20:42:45;;;;;;;;;;;18.40;51.20;;;;;;10367824;28;913;-72
2023/04/16 20:47:42;;;;;;;;;;;18.30;51.10;;;;;;10367376;28;826;-72
2023/04/16 20:52:37;;;;;;;;;;;18.30;51.10;;;;;;10366521;28;1890;-72
2023/04/16 20:57:32;;;;;;;;;;;18.30;50.90;;;;;;10367325;28;1325;-72
2023/04/16 21:02:28;;;;;;;;;;;18.30;50.90;;;;;;10367052;28;801;-72
2023/04/16 21:07:23;;;;;;;;;;;18.30;50.80;;;;;;10371666;28;1003;-72
2023/04/16 21:12:18;;;;;;;;;;;18.30;50.70;;;;;;10374808;28;1968;-72
2023/04/16 21:17:14;;;;;;;;;;;18.30;50.70;;;;;;10374985;28;928;-72
2023/04/16 21:22:09;;;;;;;;;;;18.30;50.70;;;;;;10375100;28;912;-72
2023/04/16 21:27:05;;;;;;;;;;;18.30;50.60;;;;;;10374246;28;995;-72
2023/04/16 21:32:00;;;;;;;;;;;18.30;50.60;;;;;;10374636;28;1961;-72
2023/04/16 21:36:55;;;;;;;;;;;18.30;50.60;;;;;;10373552;28;1047;-72
2023/04/16 21:41:51;;;;;;;;;;;18.20;50.50;;;;;;10373733;28;787;-72
2023/04/16 21:46:46;;;;;;;;;;;18.30;50.50;;;;;;10373111;28;885;-72
2023/04/16 21:51:41;;;;;;;;;;;18.30;50.50;;;;;;10373853;28;1898;-72
2023/04/16 21:56:37;;;;;;;;;;;18.20;50.30;;;;;;10373952;28;1435;-72
2023/04/16 22:01:33;;;;;;;;;;;18.30;50.40;;;;;;10373628;28;864;-72
2023/04/16 22:06:28;;;;;;;;;;;18.20;50.30;;;;;;10372163;28;892;-72
2023/04/16 22:11:23;;;;;;;;;;;18.20;50.30;;;;;;10373150;28;1973;-72
2023/04/16 22:16:19;;;;;;;;;;;18.20;50.30;;;;;;10353490;28;852;-72
2023/04/16 22:21:14;;;;;;;;;;;18.20;50.30;;;;;;10372207;28;1063;-72
2023/04/16 22:26:11;;;;;;;;;;;18.20;50.30;;;;;;10372020;28;823;-72
2023/04/16 22:31:06;;;;;;;;;;;18.20;50.20;;;;;;10372291;28;1964;-72
2023/04/16 22:36:02;;;;;;;;;;;18.20;50.20;;;;;;10372259;28;1070;-72
2023/04/16 22:40:57;;;;;;;;;;;18.20;50.20;;;;;;10371467;28;793;-72
2023/04/16 22:45:54;;;;;;;;;;;18.30;50.20;;;;;;10372493;28;954;-72
2023/04/16 22:50:50;;;;;;;;;;;18.20;50.20;;;;;;10371680;28;1969;-72
2023/04/16 22:55:45;;;;;;;;;;;18.20;50.20;;;;;;10370522;28;1370;-72
2023/04/16 23:00:40;;;;;;;;;;;18.20;50.20;;;;;;10370716;28;869;-72
2023/04/16 23:05:36;;;;;;;;;;;18.20;50.10;;;;;;10370507;28;954;-72
2023/04/16 23:10:31;;;;;;;;;;;18.20;50.20;;;;;;10370190;28;1976;-72
2023/04/16 23:15:27;;;;;;;;;;;18.20;50.10;;;;;;10370692;28;879;-72
2023/04/16 23:20:22;;;;;;;;;;;18.20;50.10;;;;;;10371149;28;825;-72
2023/04/16 23:25:18;;;;;;;;;;;18.30;50.10;;;;;;10369621;28;985;-72
2023/04/16 23:30:13;;;;;;;;;;;18.30;50.00;;;;;;10369974;28;1964;-72
2023/04/16 23:35:08;;;;;;;;;;;18.20;50.00;;;;;;10369930;28;947;-72
2023/04/16 23:40:04;;;;;;;;;;;18.30;50.00;;;;;;10369147;28;855;-72
2023/04/16 23:44:59;;;;;;;;;;;18.20;50.00;;;;;;10369560;28;871;-72
2023/04/16 23:49:55;;;;;;;;;;;18.20;50.00;;;;;;10368681;28;1898;-72
2023/04/16 23:54:50;;;;;;;;;;;18.20;50.00;;;;;;10368995;28;1222;-72
2023/04/16 23:59:45;;;;;;;;;;;18.20;50.00;;;;;;10368444;28;814;-72
